Lusby, MD

4:15 AM EDT on July 27, 2016 (GMT -0400)
Chesapeake Ranch Estates | | Change Station

Elev 112 ft 38.37 °N, 76.43 °W | Updated 14 seconds ago

Overcast
Overcast
79.5 °F
Feels Like 85 °F
N
0.0
Wind Variable Wind from SW
Gusts 0.0 mph

Today
High -- | Low -- °F
--% Chance of Precip.
Yesterday
High -- | Low -- °F
Precip. -- in
Pressure 29.92 in
Visibility 10.0 miles
Clouds Mostly Cloudy 6000 ft
Overcast 9500 ft
Heat Index 85 °F
Dew Point 77 °F
Humidity 92%
Rainfall 0.00 in
Snow Depth Not available.
6:04 AM 8:19 PM
Last Quarter, 46% visible
METAR KNHK 270752Z AUTO 28005KT 10SM BKN060 OVC095 27/24 A2992 RMK AO2 SLP132 T02720239 PWINO
Pressure 29.92 in
Visibility 10.0 miles
Clouds Mostly Cloudy 6000 ft
Overcast 9500 ft
Heat Index 85 °F
Dew Point 77 °F
Humidity 92%
Rainfall 0.00 in
Snow Depth Not available.
6:04 AM 8:19 PM
Last Quarter, 46% visible
METAR KNHK 270752Z AUTO 28005KT 10SM BKN060 OVC095 27/24 A2992 RMK AO2 SLP132 T02720239 PWINO

10-Day Weather Forecast

Almanac

Astronomy

Jul. 27, 2016 Rise Set
Actual Time
Civil Twilight
Nautical Twilight
Astronomical Twilight
Moon
Length of Visible Light
Length of Day
Tomorrow will be .
, % of the Moon is Illuminated

Today's Extremes

State Highs State Lows

Community

WunderPhotos

Upload Photos

1,927,818 photos uploaded!

WunderBlog® & News

Nearby

Air Quality

  Air Quality AQ Index Pollutant
Not available.

Snow Depth

Station Depth Elevation

Earthquake Activity

City Distance Mag. Time & Date
Minimum magnitude displayed is 2.5.

Coastal Water Temperatures

Place Temperature

Stations

Nearby Weather Stations

Station Location Temp. Windchill Dew Point Humidity Wind Precip. Elev Updated Type
                   

Watches & Warnings

There are currently no watches in effect.